createdAt,value
2022-10-09T00:01:32.289Z,11.54
2022-10-09T00:04:01.870Z,11.56
2022-10-09T00:06:32.684Z,11.58
2022-10-09T00:09:03.185Z,11.60
2022-10-09T00:11:34.557Z,11.63
2022-10-09T00:14:04.827Z,11.65
2022-10-09T00:16:34.448Z,11.67
2022-10-09T00:19:04.118Z,11.70
2022-10-09T00:21:35.068Z,11.73
2022-10-09T00:24:05.628Z,11.75
2022-10-09T00:26:35.225Z,11.78
2022-10-09T00:29:05.333Z,11.80
2022-10-09T00:31:35.436Z,11.80
2022-10-09T00:34:05.011Z,11.81
2022-10-09T00:36:34.642Z,11.81
2022-10-09T00:39:04.498Z,11.81
2022-10-09T00:41:34.793Z,11.82
2022-10-09T00:44:05.796Z,11.82
2022-10-09T00:46:38.065Z,11.85
2022-10-09T00:49:13.316Z,11.86
2022-10-09T00:51:44.504Z,11.88
2022-10-09T00:54:16.534Z,11.89
2022-10-09T00:56:46.104Z,11.90
2022-10-09T00:59:16.078Z,11.91
2022-10-09T01:01:46.152Z,11.92
2022-10-09T01:04:16.389Z,11.92
2022-10-09T01:06:55.245Z,11.93
2022-10-09T01:09:28.001Z,11.94
2022-10-09T01:12:00.312Z,11.93
2022-10-09T01:14:31.153Z,11.91
2022-10-09T01:17:04.125Z,11.88
2022-10-09T01:19:43.060Z,11.85
2022-10-09T01:22:18.163Z,11.81
2022-10-09T01:24:49.566Z,11.79
2022-10-09T01:27:23.254Z,11.76
2022-10-09T01:29:55.706Z,11.73
2022-10-09T01:32:27.479Z,11.72
2022-10-09T01:34:58.000Z,11.71
2022-10-09T01:37:29.068Z,11.71
2022-10-09T01:39:59.447Z,11.70
2022-10-09T01:42:30.032Z,11.69
2022-10-09T01:44:59.844Z,11.69
2022-10-09T01:47:29.474Z,11.69
2022-10-09T01:50:03.775Z,11.69
2022-10-09T01:52:41.769Z,11.70
2022-10-09T01:55:15.285Z,11.71
2022-10-09T01:57:46.600Z,11.72
2022-10-09T02:00:16.930Z,11.73
2022-10-09T02:02:47.555Z,11.74
2022-10-09T02:05:20.491Z,11.74
2022-10-09T02:07:50.373Z,11.72
2022-10-09T02:10:21.557Z,11.69
2022-10-09T02:12:52.427Z,11.67
2022-10-09T02:15:22.439Z,11.66
2022-10-09T02:17:54.733Z,11.67
2022-10-09T02:20:28.925Z,11.67
2022-10-09T02:22:59.579Z,11.69
2022-10-09T02:25:29.874Z,11.70
2022-10-09T02:27:59.793Z,11.70
2022-10-09T02:30:35.345Z,11.72
2022-10-09T02:33:05.057Z,11.73
2022-10-09T02:35:34.984Z,11.73
2022-10-09T02:38:04.591Z,11.71
2022-10-09T02:40:34.176Z,11.70
2022-10-09T02:43:03.721Z,11.68
2022-10-09T02:45:33.279Z,11.66
2022-10-09T02:48:02.849Z,11.63
2022-10-09T02:50:32.396Z,11.61
2022-10-09T02:53:01.975Z,11.59
2022-10-09T02:55:31.463Z,11.58
2022-10-09T02:58:00.995Z,11.58
2022-10-09T03:00:30.601Z,11.58
2022-10-09T03:03:00.207Z,11.59
2022-10-09T03:05:29.772Z,11.62
2022-10-09T03:07:59.347Z,11.63
2022-10-09T03:10:28.906Z,11.65
2022-10-09T03:12:58.611Z,11.66
2022-10-09T03:15:28.155Z,11.67
2022-10-09T03:17:57.733Z,11.66
2022-10-09T03:20:27.338Z,11.65
2022-10-09T03:22:56.948Z,11.65
2022-10-09T03:25:26.555Z,11.65
2022-10-09T03:27:56.114Z,11.66
2022-10-09T03:30:25.762Z,11.66
2022-10-09T03:32:55.352Z,11.66
2022-10-09T03:35:24.957Z,11.68
2022-10-09T03:37:54.495Z,11.69
2022-10-09T03:40:24.025Z,11.73
2022-10-09T03:42:53.564Z,11.76
2022-10-09T03:45:23.144Z,11.79
2022-10-09T03:47:52.714Z,11.84
2022-10-09T03:50:22.266Z,11.88
2022-10-09T03:52:52.090Z,11.93
2022-10-09T03:55:21.799Z,11.98
2022-10-09T03:57:51.347Z,12.02
2022-10-09T04:00:21.170Z,12.06
2022-10-09T04:02:51.169Z,12.09
2022-10-09T04:05:21.210Z,12.10
2022-10-09T04:07:50.757Z,12.11
2022-10-09T04:10:20.425Z,12.11
2022-10-09T04:12:50.257Z,12.09
2022-10-09T04:15:19.948Z,12.06
2022-10-09T04:17:50.118Z,12.02
2022-10-09T04:20:20.856Z,11.97
2022-10-09T04:22:50.749Z,11.91
2022-10-09T04:25:20.628Z,11.86
2022-10-09T04:27:50.324Z,11.80
2022-10-09T04:30:19.847Z,11.75
2022-10-09T04:32:49.594Z,11.70
2022-10-09T04:35:19.481Z,11.65
2022-10-09T04:37:49.037Z,11.60
2022-10-09T04:40:18.743Z,11.56
2022-10-09T04:42:48.456Z,11.53
2022-10-09T04:45:18.489Z,11.53
2022-10-09T04:47:48.098Z,11.53
2022-10-09T04:50:17.903Z,11.55
2022-10-09T04:52:59.931Z,11.59
2022-10-09T04:55:29.628Z,11.64
2022-10-09T04:57:59.206Z,11.68
2022-10-09T05:00:28.756Z,11.73
2022-10-09T05:02:58.504Z,11.77
2022-10-09T05:05:28.065Z,11.82
2022-10-09T05:07:57.620Z,11.88
2022-10-09T05:10:27.269Z,11.92
2022-10-09T05:12:56.770Z,11.94
2022-10-09T05:15:26.538Z,11.95
2022-10-09T05:17:56.082Z,11.96
2022-10-09T05:20:25.705Z,11.97
2022-10-09T05:22:55.302Z,11.98
2022-10-09T05:25:24.856Z,11.97
2022-10-09T05:27:54.496Z,11.98
2022-10-09T05:30:24.067Z,11.99
2022-10-09T05:32:53.680Z,12.02
2022-10-09T05:35:23.194Z,12.06
2022-10-09T05:37:52.814Z,12.08
2022-10-09T05:40:25.874Z,12.11
2022-10-09T05:42:58.585Z,12.14
2022-10-09T05:45:28.144Z,12.18
2022-10-09T05:47:57.736Z,12.20
2022-10-09T05:50:27.391Z,12.21
2022-10-09T05:52:57.209Z,12.20
2022-10-09T05:55:28.344Z,12.19
2022-10-09T05:57:57.958Z,12.16
2022-10-09T06:00:27.505Z,12.14
2022-10-09T06:02:57.150Z,12.12
2022-10-09T06:05:26.810Z,12.12
2022-10-09T06:07:56.391Z,12.16
2022-10-09T06:10:31.464Z,12.18
2022-10-09T06:13:01.879Z,12.21
2022-10-09T06:15:31.443Z,12.24
2022-10-09T06:18:01.012Z,12.24
2022-10-09T06:20:30.580Z,12.26
2022-10-09T06:23:00.303Z,12.27
2022-10-09T06:25:29.870Z,12.30
2022-10-09T06:27:59.472Z,12.31
2022-10-09T06:30:29.076Z,12.32
2022-10-09T06:32:58.706Z,12.35
2022-10-09T06:35:28.268Z,12.38
2022-10-09T06:37:57.796Z,12.41
2022-10-09T06:40:27.406Z,12.43
2022-10-09T06:42:57.009Z,12.46
2022-10-09T06:45:26.557Z,12.47
2022-10-09T06:47:56.479Z,12.48
2022-10-09T06:50:25.993Z,12.47
2022-10-09T06:52:55.612Z,12.47
2022-10-09T06:55:28.587Z,12.46
2022-10-09T06:58:01.012Z,12.49
2022-10-09T07:00:30.520Z,12.51
2022-10-09T07:03:00.130Z,12.53
2022-10-09T07:05:29.721Z,12.52
2022-10-09T07:07:59.296Z,12.52
2022-10-09T07:10:29.324Z,12.52
2022-10-09T07:12:58.893Z,12.51
2022-10-09T07:15:28.550Z,12.52
2022-10-09T07:17:58.137Z,12.53
2022-10-09T07:20:27.742Z,12.53
2022-10-09T07:22:57.398Z,12.52
2022-10-09T07:25:26.949Z,12.52
2022-10-09T07:27:56.507Z,12.53
2022-10-09T07:30:26.130Z,12.55
2022-10-09T07:32:55.690Z,12.55
2022-10-09T07:35:25.271Z,12.55
2022-10-09T07:37:54.728Z,12.54
2022-10-09T07:40:26.194Z,12.54
2022-10-09T07:42:55.837Z,12.54
2022-10-09T07:45:25.392Z,12.55
2022-10-09T07:47:54.953Z,12.58
2022-10-09T07:50:24.486Z,12.61
2022-10-09T07:52:54.085Z,12.66
2022-10-09T07:55:23.739Z,12.74
2022-10-09T07:57:53.699Z,12.85
2022-10-09T08:00:23.234Z,12.98
2022-10-09T08:02:53.253Z,13.13
2022-10-09T08:05:23.130Z,13.28
2022-10-09T08:07:52.642Z,13.43
2022-10-09T08:10:23.071Z,13.57
2022-10-09T08:12:52.640Z,13.68
2022-10-09T08:15:23.847Z,13.74
2022-10-09T08:17:55.234Z,13.80
2022-10-09T08:20:25.063Z,13.83
2022-10-09T08:22:54.587Z,13.83
2022-10-09T08:25:24.287Z,13.84
2022-10-09T08:27:54.917Z,13.86
2022-10-09T08:30:25.012Z,13.88
2022-10-09T08:32:54.677Z,13.85
2022-10-09T08:35:24.386Z,13.82
2022-10-09T08:37:54.064Z,13.81
2022-10-09T08:40:27.850Z,13.81
2022-10-09T08:43:04.619Z,13.78
2022-10-09T08:45:35.193Z,13.75
2022-10-09T08:48:28.514Z,13.73
2022-10-09T08:51:00.828Z,13.72
2022-10-09T08:53:35.580Z,13.70
2022-10-09T08:56:07.016Z,13.67
2022-10-09T08:58:38.081Z,13.65
2022-10-09T09:01:13.923Z,13.63
2022-10-09T09:04:00.891Z,13.62
2022-10-09T09:06:35.022Z,13.63
2022-10-09T09:09:12.044Z,13.64
2022-10-09T09:11:45.954Z,13.63
2022-10-09T09:14:20.428Z,13.63
2022-10-09T09:16:53.338Z,13.61
2022-10-09T09:19:35.542Z,13.61
2022-10-09T09:22:05.662Z,13.59
2022-10-09T09:24:40.372Z,13.60
2022-10-09T09:27:14.662Z,13.61
2022-10-09T09:29:45.328Z,13.63
2022-10-09T09:32:19.235Z,13.65
2022-10-09T09:34:49.007Z,13.68
2022-10-09T09:37:18.679Z,13.71
2022-10-09T09:40:35.432Z,13.73
2022-10-09T09:42:38.209Z,13.75
2022-10-09T09:45:09.186Z,13.78
2022-10-09T09:47:41.846Z,13.82
2022-10-09T09:50:28.506Z,13.86
2022-10-09T09:53:04.462Z,13.94
2022-10-09T09:55:35.244Z,14.01
2022-10-09T09:58:06.964Z,14.09
2022-10-09T10:00:37.280Z,14.17
2022-10-09T10:03:12.670Z,14.23
2022-10-09T10:05:43.593Z,14.30
2022-10-09T10:08:17.710Z,14.36
2022-10-09T10:10:48.013Z,14.42
2022-10-09T10:13:19.779Z,14.48
2022-10-09T10:15:54.293Z,14.53
2022-10-09T10:18:25.489Z,14.60
2022-10-09T10:20:56.226Z,14.67
2022-10-09T10:23:35.560Z,14.73
2022-10-09T10:26:07.000Z,14.80
2022-10-09T10:28:40.227Z,14.86
2022-10-09T10:31:14.916Z,14.93
2022-10-09T10:33:46.010Z,15.00
2022-10-09T10:36:15.658Z,15.09
2022-10-09T10:38:48.200Z,15.16
2022-10-09T10:41:22.883Z,15.23
2022-10-09T10:43:56.092Z,15.34
2022-10-09T10:46:27.395Z,15.44
2022-10-09T10:48:59.234Z,15.55
2022-10-09T10:51:52.705Z,15.66
2022-10-09T10:54:32.083Z,15.78
2022-10-09T10:57:06.452Z,15.88
2022-10-09T10:59:39.755Z,15.94
2022-10-09T11:02:22.904Z,16.02
2022-10-09T11:04:56.553Z,16.11
2022-10-09T11:07:31.739Z,16.17
2022-10-09T11:10:04.240Z,16.23
2022-10-09T11:12:57.734Z,16.28
2022-10-09T11:15:37.638Z,16.34
2022-10-09T11:18:14.323Z,16.35
2022-10-09T11:20:53.885Z,16.30
2022-10-09T11:23:28.381Z,16.23
2022-10-09T11:26:00.642Z,16.14
2022-10-09T11:28:34.523Z,16.04
2022-10-09T11:31:11.403Z,15.90
2022-10-09T11:33:44.806Z,15.79
2022-10-09T11:36:17.549Z,15.65
2022-10-09T11:38:50.226Z,15.51
2022-10-09T11:41:32.374Z,15.38
2022-10-09T11:44:12.214Z,15.24
2022-10-09T11:46:46.706Z,15.12
2022-10-09T11:55:48.654Z,14.71
2022-10-09T11:58:26.069Z,14.55
2022-10-09T12:00:57.358Z,14.43
2022-10-09T12:03:33.648Z,14.31
2022-10-09T12:06:08.885Z,14.20
2022-10-09T12:08:39.938Z,14.11
2022-10-09T12:11:12.389Z,14.06
2022-10-09T12:13:49.510Z,14.02
2022-10-09T12:16:35.080Z,14.02
2022-10-09T12:19:05.491Z,14.01
2022-10-09T12:21:40.331Z,14.00
2022-10-09T12:24:17.149Z,13.98
2022-10-09T12:26:51.848Z,13.96
2022-10-09T12:29:26.171Z,13.96
2022-10-09T12:31:58.159Z,13.97
2022-10-09T12:34:29.304Z,13.99
2022-10-09T12:37:18.428Z,14.00
2022-10-09T12:39:50.603Z,14.02
2022-10-09T12:42:23.278Z,14.08
2022-10-09T12:44:55.289Z,14.23
2022-10-09T12:47:27.154Z,14.43
2022-10-09T12:50:02.020Z,14.70
2022-10-09T12:52:32.248Z,15.02
2022-10-09T12:55:02.394Z,15.22
2022-10-09T12:57:32.203Z,15.27
2022-10-09T13:00:02.244Z,15.18
2022-10-09T13:02:32.113Z,15.06
2022-10-09T13:05:02.393Z,14.93
2022-10-09T13:07:33.269Z,14.81
2022-10-09T13:10:04.876Z,14.74
2022-10-09T13:12:35.516Z,14.75
2022-10-09T13:15:06.452Z,14.92
2022-10-09T13:17:37.216Z,16.04
2022-10-09T13:20:23.385Z,16.46
2022-10-09T13:22:56.472Z,16.69
2022-10-09T13:25:27.376Z,16.57
2022-10-09T13:27:58.139Z,16.47
2022-10-09T13:30:31.110Z,16.74
2022-10-09T13:33:00.633Z,16.73
2022-10-09T13:35:30.686Z,16.47
2022-10-09T13:38:00.279Z,16.22
2022-10-09T13:40:29.925Z,15.95
2022-10-09T13:43:02.565Z,15.72
2022-10-09T13:45:32.155Z,15.52
2022-10-09T13:48:01.817Z,15.33
2022-10-09T13:50:31.422Z,15.14
2022-10-09T13:53:01.448Z,14.96
2022-10-09T13:55:31.175Z,14.79
2022-10-09T13:58:00.776Z,14.65
2022-10-09T14:00:30.960Z,14.54
2022-10-09T14:03:00.633Z,14.45
2022-10-09T14:05:30.288Z,14.37
2022-10-09T14:07:59.835Z,14.31
2022-10-09T14:10:29.662Z,14.26
2022-10-09T14:12:59.220Z,14.20
2022-10-09T14:15:28.777Z,14.14
2022-10-09T14:17:58.667Z,14.10
2022-10-09T14:20:29.720Z,14.08
2022-10-09T14:23:01.930Z,14.08
2022-10-09T14:25:32.884Z,14.08
2022-10-09T14:28:03.006Z,14.08
2022-10-09T14:30:32.812Z,14.07
2022-10-09T14:33:02.477Z,14.06
2022-10-09T14:35:34.023Z,14.05
2022-10-09T14:38:03.711Z,14.09
2022-10-09T14:40:33.306Z,14.15
2022-10-09T14:43:03.135Z,14.22
2022-10-09T14:45:34.154Z,14.29
2022-10-09T14:48:03.864Z,14.37
2022-10-09T14:50:35.875Z,14.47
2022-10-09T14:53:05.396Z,14.56
2022-10-09T14:55:36.802Z,14.68
2022-10-09T14:58:06.396Z,14.81
2022-10-09T15:00:36.092Z,14.94
2022-10-09T15:03:05.733Z,15.05
2022-10-09T15:05:37.535Z,15.15
2022-10-09T15:08:07.225Z,15.24
2022-10-09T15:10:36.921Z,15.30
2022-10-09T15:13:06.787Z,15.33
2022-10-09T15:15:36.385Z,15.28
2022-10-09T15:18:06.324Z,15.20
2022-10-09T15:20:35.900Z,15.12
2022-10-09T15:23:05.496Z,15.06
2022-10-09T15:25:35.042Z,15.03
2022-10-09T15:28:04.722Z,15.07
2022-10-09T15:30:34.328Z,15.20
2022-10-09T15:33:04.181Z,15.39
2022-10-09T15:35:34.840Z,15.57
2022-10-09T15:38:04.412Z,15.69
2022-10-09T15:40:42.260Z,15.78
2022-10-09T15:43:11.851Z,15.90
2022-10-09T15:45:41.533Z,16.13
2022-10-09T15:48:13.910Z,16.34
2022-10-09T15:50:46.015Z,16.46
2022-10-09T15:53:15.757Z,16.47
2022-10-09T15:55:46.302Z,16.40
2022-10-09T15:58:16.990Z,16.23
2022-10-09T16:00:48.094Z,16.11
2022-10-09T16:03:18.807Z,16.11
2022-10-09T16:05:51.135Z,16.07
2022-10-09T16:08:20.754Z,15.95
2022-10-09T16:10:52.094Z,15.81
2022-10-09T16:13:21.685Z,15.69
2022-10-09T16:15:51.954Z,15.62
2022-10-09T16:18:22.765Z,15.54
2022-10-09T16:20:53.112Z,15.47
2022-10-09T16:23:22.732Z,15.40
2022-10-09T16:25:59.620Z,15.32
2022-10-09T16:28:29.930Z,15.23
2022-10-09T16:30:59.612Z,15.15
2022-10-09T16:33:29.271Z,15.10
2022-10-09T16:36:10.107Z,15.05
2022-10-09T16:38:40.243Z,14.98
2022-10-09T16:41:10.898Z,14.94
2022-10-09T16:43:40.569Z,14.89
2022-10-09T16:46:16.894Z,14.84
2022-10-09T16:48:46.771Z,14.81
2022-10-09T16:51:17.379Z,14.77
2022-10-09T16:53:49.645Z,14.73
2022-10-09T16:56:20.561Z,14.68
2022-10-09T16:58:50.938Z,14.64
2022-10-09T17:01:20.561Z,14.60
2022-10-09T17:03:50.590Z,14.55
2022-10-09T17:06:21.091Z,14.49
2022-10-09T17:08:51.002Z,14.44
2022-10-09T17:11:22.144Z,14.39
2022-10-09T17:13:52.214Z,14.35
2022-10-09T17:16:23.263Z,14.33
2022-10-09T17:18:55.922Z,14.32
2022-10-09T17:21:27.922Z,14.31
2022-10-09T17:24:01.802Z,14.29
2022-10-09T17:26:31.696Z,14.27
2022-10-09T17:29:01.581Z,14.25
2022-10-09T17:31:31.236Z,14.23
2022-10-09T17:34:02.194Z,14.22
2022-10-09T17:36:32.931Z,14.21
2022-10-09T17:39:02.760Z,14.21
2022-10-09T17:41:32.642Z,14.20
2022-10-09T17:44:02.406Z,14.20
2022-10-09T17:46:32.046Z,14.20
2022-10-09T17:49:02.042Z,14.20
2022-10-09T17:51:32.485Z,14.18
2022-10-09T17:54:04.044Z,14.16
2022-10-09T17:56:35.603Z,14.04
2022-10-09T17:59:05.719Z,13.86
2022-10-09T18:01:35.697Z,13.62
2022-10-09T18:04:05.714Z,13.36
2022-10-09T18:06:36.524Z,13.15
2022-10-09T18:09:07.499Z,13.01
2022-10-09T18:11:37.799Z,12.93
2022-10-09T18:14:07.963Z,12.85
2022-10-09T18:16:38.966Z,12.72
2022-10-09T18:19:11.822Z,12.58
2022-10-09T18:21:43.153Z,12.44
2022-10-09T18:24:13.779Z,12.34
2022-10-09T18:26:44.904Z,12.26
2022-10-09T18:29:14.664Z,12.14
2022-10-09T18:31:44.330Z,11.98
2022-10-09T18:34:14.693Z,11.79
2022-10-09T18:36:44.775Z,11.62
2022-10-09T18:39:15.606Z,11.45
2022-10-09T18:41:45.939Z,11.33
2022-10-09T18:44:19.888Z,11.20
2022-10-09T18:46:51.834Z,11.04
2022-10-09T18:49:24.183Z,10.90
2022-10-09T18:51:55.569Z,10.78
2022-10-09T18:54:27.186Z,10.67
2022-10-09T18:56:57.143Z,10.59
2022-10-09T18:59:26.726Z,10.48
2022-10-09T19:01:56.326Z,10.42
2022-10-09T19:04:26.853Z,10.39
2022-10-09T19:06:57.648Z,10.39
2022-10-09T19:09:27.827Z,10.41
2022-10-09T19:11:57.753Z,10.44
2022-10-09T19:14:27.613Z,10.44
2022-10-09T19:16:57.211Z,10.45
2022-10-09T19:19:28.396Z,10.43
2022-10-09T19:21:58.800Z,10.41
2022-10-09T19:24:33.387Z,10.40
2022-10-09T19:27:04.214Z,10.38
2022-10-09T19:29:34.053Z,10.37
2022-10-09T19:32:04.472Z,10.37
2022-10-09T19:34:34.539Z,10.39
2022-10-09T19:39:49.150Z,10.37
2022-10-09T19:42:20.355Z,10.37
2022-10-09T19:44:50.199Z,10.36
2022-10-09T19:47:21.842Z,10.35
2022-10-09T19:49:51.745Z,10.35
2022-10-09T19:52:23.214Z,10.32
2022-10-09T19:54:54.157Z,10.30
2022-10-09T19:57:24.425Z,10.27
2022-10-09T19:59:54.865Z,10.25
2022-10-09T20:02:24.732Z,10.21
2022-10-09T20:04:55.243Z,10.18
2022-10-09T20:07:24.960Z,10.14
2022-10-09T20:09:54.948Z,10.10
2022-10-09T20:12:24.773Z,10.05
2022-10-09T20:14:54.402Z,9.99
2022-10-09T20:17:24.516Z,9.93
2022-10-09T20:19:54.386Z,9.86
2022-10-09T20:22:24.107Z,9.80
2022-10-09T20:24:55.106Z,9.73
2022-10-09T20:27:25.511Z,9.68
2022-10-09T20:29:55.589Z,9.62
2022-10-09T20:32:25.746Z,9.56
2022-10-09T20:34:55.486Z,9.49
2022-10-09T20:37:25.516Z,9.43
2022-10-09T20:39:58.258Z,9.36
2022-10-09T20:42:28.085Z,9.31
2022-10-09T20:44:57.724Z,9.25
2022-10-09T20:47:27.406Z,9.21
2022-10-09T20:49:57.039Z,9.17
2022-10-09T20:52:26.900Z,9.13
2022-10-09T20:54:56.602Z,9.09
2022-10-09T20:57:26.267Z,9.06
2022-10-09T20:59:56.201Z,9.02
2022-10-09T21:02:26.093Z,8.98
2022-10-09T21:04:56.754Z,8.93
2022-10-09T21:07:26.377Z,8.90
2022-10-09T21:09:55.960Z,8.86
2022-10-09T21:12:25.592Z,8.84
2022-10-09T21:14:55.205Z,8.81
2022-10-09T21:17:25.853Z,8.80
2022-10-09T21:19:56.732Z,8.76
2022-10-09T21:22:26.861Z,8.72
2022-10-09T21:24:56.539Z,8.69
2022-10-09T21:27:26.237Z,8.65
2022-10-09T21:29:55.799Z,8.61
2022-10-09T21:32:25.455Z,8.57
2022-10-09T21:34:55.096Z,8.52
2022-10-09T21:37:24.900Z,8.49
2022-10-09T21:39:54.569Z,8.45
2022-10-09T21:42:24.256Z,8.41
2022-10-09T21:44:53.883Z,8.36
2022-10-09T21:47:23.487Z,8.33
2022-10-09T21:49:53.045Z,8.30
2022-10-09T21:52:22.640Z,8.27
2022-10-09T21:54:52.209Z,8.23
2022-10-09T21:57:21.774Z,8.20
2022-10-09T21:59:51.342Z,8.17
2022-10-09T22:02:20.992Z,8.13
2022-10-09T22:04:51.814Z,8.10
2022-10-09T22:07:21.556Z,8.07
2022-10-09T22:09:51.238Z,8.05
2022-10-09T22:12:21.239Z,8.02
2022-10-09T22:14:50.902Z,8.00
2022-10-09T22:17:20.848Z,7.97
2022-10-09T22:19:50.855Z,7.94
2022-10-09T22:22:20.593Z,7.90
2022-10-09T22:24:50.297Z,7.87
2022-10-09T22:27:20.088Z,7.85
2022-10-09T22:29:49.783Z,7.84
2022-10-09T22:32:19.314Z,7.82
2022-10-09T22:34:51.142Z,7.80
2022-10-09T22:37:20.696Z,7.77
2022-10-09T22:39:50.644Z,7.77
2022-10-09T22:42:20.311Z,7.75
2022-10-09T22:44:49.884Z,7.75
2022-10-09T22:47:19.446Z,7.74
2022-10-09T22:49:50.919Z,7.73
2022-10-09T22:52:20.989Z,7.72
2022-10-09T22:54:50.645Z,7.72
2022-10-09T22:57:20.660Z,7.73
2022-10-09T22:59:50.324Z,7.73
2022-10-09T23:02:19.996Z,7.74
2022-10-09T23:04:49.642Z,7.75
2022-10-09T23:07:19.373Z,7.75
2022-10-09T23:09:49.032Z,7.74
2022-10-09T23:12:18.615Z,7.72
2022-10-09T23:14:48.409Z,7.71
2022-10-09T23:17:17.990Z,7.69
2022-10-09T23:19:47.581Z,7.67
2022-10-09T23:22:17.126Z,7.65
2022-10-09T23:24:46.705Z,7.64
2022-10-09T23:27:16.265Z,7.63
2022-10-09T23:29:45.835Z,7.63
2022-10-09T23:32:15.411Z,7.62
2022-10-09T23:34:45.083Z,7.60
2022-10-09T23:37:14.661Z,7.59
2022-10-09T23:39:44.199Z,7.58
2022-10-09T23:42:13.752Z,7.56
2022-10-09T23:44:43.511Z,7.55
2022-10-09T23:47:13.082Z,7.52
2022-10-09T23:49:43.032Z,7.50
2022-10-09T23:52:12.576Z,7.48
2022-10-09T23:54:42.200Z,7.46
2022-10-09T23:57:11.781Z,7.44
2022-10-09T23:59:41.887Z,7.41
